createdAt,value
2023-02-27T00:01:27.735Z,11.00
2023-02-27T00:04:06.531Z,11.32
2023-02-27T00:06:45.558Z,10.88
2023-02-27T00:09:31.057Z,11.05
2023-02-27T00:12:03.933Z,10.10
2023-02-27T00:14:54.106Z,9.82
2023-02-27T00:17:36.680Z,10.48
2023-02-27T00:20:18.312Z,11.93
2023-02-27T00:22:59.446Z,14.93
2023-02-27T00:25:36.340Z,10.85
2023-02-27T00:28:12.923Z,11.68
2023-02-27T00:31:00.737Z,9.93
2023-02-27T00:33:43.708Z,10.65
2023-02-27T00:36:23.548Z,11.07
2023-02-27T00:39:02.764Z,11.20
2023-02-27T00:41:37.448Z,11.88
2023-02-27T00:44:19.258Z,11.80
2023-02-27T00:47:07.321Z,6.63
2023-02-27T00:49:56.316Z,11.43
2023-02-27T00:52:33.870Z,12.45
2023-02-27T00:55:13.313Z,12.48
2023-02-27T00:57:54.660Z,12.05
2023-02-27T01:00:33.471Z,12.93
2023-02-27T01:06:05.435Z,12.10
2023-02-27T01:08:42.904Z,11.88
2023-02-27T01:11:39.361Z,12.48
2023-02-27T01:14:12.470Z,12.93
2023-02-27T01:16:47.143Z,13.20
2023-02-27T01:19:24.108Z,7.38
2023-02-27T01:22:02.355Z,13.13
2023-02-27T01:24:37.808Z,12.20
2023-02-27T01:27:15.215Z,13.32
2023-02-27T01:29:51.188Z,14.15
2023-02-27T01:32:29.296Z,13.18
2023-02-27T01:35:18.695Z,13.10
2023-02-27T01:37:53.916Z,13.63
2023-02-27T01:40:29.392Z,6.45
2023-02-27T01:43:04.000Z,13.18
2023-02-27T01:45:39.350Z,12.80
2023-02-27T01:48:21.367Z,13.30
2023-02-27T01:51:12.010Z,12.63
2023-02-27T01:53:50.469Z,14.30
2023-02-27T01:56:25.781Z,13.85
2023-02-27T01:59:08.637Z,12.77
2023-02-27T02:01:55.126Z,14.75
2023-02-27T02:04:35.454Z,13.63
2023-02-27T02:07:17.248Z,14.80
2023-02-27T02:09:55.601Z,13.55
2023-02-27T02:12:43.481Z,7.35
2023-02-27T02:15:25.623Z,14.00
2023-02-27T02:18:15.000Z,14.07
2023-02-27T02:21:35.969Z,13.55
2023-02-27T02:24:51.337Z,13.73
2023-02-27T02:27:48.994Z,13.55
2023-02-27T02:31:24.616Z,14.35
2023-02-27T02:34:51.925Z,14.65
2023-02-27T02:38:02.849Z,13.45
2023-02-27T02:40:45.045Z,14.52
2023-02-27T02:43:26.072Z,14.35
2023-02-27T02:46:13.534Z,14.20
2023-02-27T02:48:59.716Z,15.20
2023-02-27T02:51:48.650Z,14.90
2023-02-27T02:54:46.102Z,14.57
2023-02-27T02:57:33.896Z,13.93
2023-02-27T03:00:33.668Z,14.82
2023-02-27T03:03:21.835Z,14.30
2023-02-27T03:06:06.439Z,15.25
2023-02-27T03:08:50.314Z,14.65
2023-02-27T03:11:41.153Z,15.38
2023-02-27T03:14:33.365Z,15.15
2023-02-27T03:17:19.441Z,15.57
2023-02-27T03:20:12.428Z,15.80
2023-02-27T03:22:54.709Z,16.13
2023-02-27T03:25:32.966Z,15.38
2023-02-27T03:28:27.327Z,14.88
2023-02-27T03:31:30.323Z,15.70
2023-02-27T03:34:20.939Z,15.68
2023-02-27T03:37:10.934Z,16.23
2023-02-27T03:40:06.678Z,15.23
2023-02-27T03:42:55.561Z,15.60
2023-02-27T03:46:02.305Z,15.55
2023-02-27T03:49:03.380Z,15.23
2023-02-27T03:51:42.575Z,15.90
2023-02-27T03:54:19.420Z,18.88
2023-02-27T03:56:58.686Z,17.02
2023-02-27T03:59:52.554Z,15.57
2023-02-27T04:02:27.872Z,18.75
2023-02-27T04:05:11.631Z,15.75
2023-02-27T04:08:39.818Z,18.15
2023-02-27T04:11:44.904Z,15.43
2023-02-27T04:14:36.275Z,15.65
2023-02-27T04:17:29.361Z,16.67
2023-02-27T04:20:46.672Z,16.38
2023-02-27T04:23:27.589Z,16.33
2023-02-27T04:28:48.903Z,14.77
2023-02-27T04:31:41.282Z,15.38
2023-02-27T04:34:31.350Z,15.50
2023-02-27T04:37:18.252Z,15.05
2023-02-27T04:40:09.537Z,15.93
2023-02-27T04:42:57.236Z,16.20
2023-02-27T04:45:46.053Z,15.82
2023-02-27T04:48:32.170Z,15.38
2023-02-27T04:51:26.373Z,15.98
2023-02-27T04:54:09.109Z,15.65
2023-02-27T04:57:09.338Z,15.93
2023-02-27T04:59:52.250Z,15.57
2023-02-27T05:02:39.718Z,16.08
2023-02-27T05:05:17.861Z,15.40
2023-02-27T05:08:10.751Z,15.90
2023-02-27T05:10:57.659Z,16.45
2023-02-27T05:13:44.394Z,20.73
2023-02-27T05:16:28.897Z,22.25
2023-02-27T05:19:11.482Z,18.88
2023-02-27T05:22:04.754Z,20.58
2023-02-27T05:24:58.444Z,16.80
2023-02-27T05:27:44.203Z,15.13
2023-02-27T05:30:54.162Z,14.68
2023-02-27T05:33:40.153Z,15.10
2023-02-27T05:36:20.523Z,15.55
2023-02-27T05:39:00.684Z,15.52
2023-02-27T05:41:43.642Z,16.25
2023-02-27T05:44:24.035Z,17.38
2023-02-27T05:47:22.423Z,16.75
2023-02-27T05:50:28.213Z,16.90
2023-02-27T05:53:13.375Z,17.92
2023-02-27T05:55:57.195Z,19.33
2023-02-27T05:58:36.691Z,19.92
2023-02-27T06:01:12.639Z,19.65
2023-02-27T06:03:58.133Z,21.25
2023-02-27T06:06:40.878Z,18.98
2023-02-27T06:09:23.704Z,21.60
2023-02-27T06:12:00.613Z,19.45
2023-02-27T06:14:35.926Z,20.90
2023-02-27T06:17:06.652Z,20.58
2023-02-27T06:19:46.154Z,19.88
2023-02-27T06:22:25.352Z,20.42
2023-02-27T06:25:03.342Z,18.73
2023-02-27T06:27:39.134Z,21.02
2023-02-27T06:30:25.816Z,20.27
2023-02-27T06:33:04.147Z,20.33
2023-02-27T06:35:44.810Z,18.35
2023-02-27T06:38:20.781Z,18.50
2023-02-27T06:40:56.288Z,18.70
2023-02-27T06:43:36.676Z,17.95
2023-02-27T06:46:13.840Z,21.08
2023-02-27T06:48:48.787Z,20.23
2023-02-27T06:51:35.907Z,21.40
2023-02-27T06:54:20.932Z,23.13
2023-02-27T06:57:01.252Z,25.38
2023-02-27T06:59:43.531Z,71.80
2023-02-27T07:02:20.345Z,25.77
2023-02-27T07:04:55.955Z,18.63
2023-02-27T07:07:43.919Z,22.13
2023-02-27T07:10:27.590Z,21.73
2023-02-27T07:13:03.623Z,21.50
2023-02-27T07:15:50.981Z,21.45
2023-02-27T07:18:33.128Z,24.10
2023-02-27T07:21:14.570Z,23.65
2023-02-27T07:23:51.510Z,20.88
2023-02-27T07:26:31.123Z,19.85
2023-02-27T07:29:09.963Z,16.90
2023-02-27T07:31:44.577Z,18.00
2023-02-27T07:34:32.221Z,18.00
2023-02-27T07:37:11.936Z,18.77
2023-02-27T07:40:08.237Z,15.82
2023-02-27T07:42:40.640Z,17.15
2023-02-27T07:45:19.216Z,16.02
2023-02-27T07:48:04.061Z,16.40
2023-02-27T07:50:48.465Z,18.42
2023-02-27T07:53:19.425Z,16.13
2023-02-27T07:58:47.261Z,17.17
2023-02-27T08:01:26.636Z,17.60
2023-02-27T08:04:03.321Z,16.88
2023-02-27T08:06:41.430Z,17.13
2023-02-27T08:09:21.147Z,15.85
2023-02-27T08:12:00.815Z,16.88
2023-02-27T08:14:42.284Z,16.48
2023-02-27T08:17:15.271Z,13.70
2023-02-27T08:19:46.888Z,16.88
2023-02-27T08:22:25.020Z,21.20
2023-02-27T08:25:03.575Z,24.35
2023-02-27T08:27:53.006Z,17.85
2023-02-27T08:30:23.503Z,20.08
2023-02-27T08:33:04.855Z,16.70
2023-02-27T08:35:39.833Z,19.38
2023-02-27T08:38:18.112Z,16.73
2023-02-27T08:40:59.024Z,16.45
2023-02-27T08:43:42.654Z,16.67
2023-02-27T08:46:14.689Z,14.18
2023-02-27T08:48:57.885Z,15.38
2023-02-27T08:51:37.436Z,15.55
2023-02-27T08:54:09.304Z,16.23
2023-02-27T08:56:40.028Z,17.77
2023-02-27T08:59:25.173Z,21.45
2023-02-27T09:02:08.919Z,18.55
2023-02-27T09:04:44.963Z,16.25
2023-02-27T09:07:26.538Z,15.48
2023-02-27T09:10:00.693Z,15.10
2023-02-27T09:12:45.333Z,21.73
2023-02-27T09:15:30.420Z,17.73
2023-02-27T09:18:18.224Z,12.88
2023-02-27T09:21:03.697Z,14.88
2023-02-27T09:23:36.076Z,12.65
2023-02-27T09:26:32.115Z,12.73
2023-02-27T09:29:23.669Z,14.02
2023-02-27T09:32:01.633Z,11.68
2023-02-27T09:34:38.381Z,15.70
2023-02-27T09:37:15.152Z,16.80
2023-02-27T09:39:57.008Z,12.30
2023-02-27T09:45:20.062Z,11.82
2023-02-27T09:48:07.332Z,14.65
2023-02-27T09:50:46.987Z,11.35
2023-02-27T09:53:36.779Z,12.13
2023-02-27T09:56:30.811Z,13.00
2023-02-27T09:59:40.093Z,13.43
2023-02-27T10:02:40.777Z,13.02
2023-02-27T10:05:50.966Z,13.23
2023-02-27T10:08:44.072Z,12.50
2023-02-27T10:11:30.220Z,12.45
2023-02-27T10:14:14.572Z,12.00
2023-02-27T10:17:00.108Z,10.68
2023-02-27T10:19:40.855Z,16.88
2023-02-27T10:22:27.383Z,12.05
2023-02-27T10:25:31.571Z,15.57
2023-02-27T10:28:18.449Z,15.18
2023-02-27T10:31:01.782Z,12.10
2023-02-27T10:33:45.001Z,11.15
2023-02-27T10:36:33.070Z,12.40
2023-02-27T10:39:28.186Z,11.63
2023-02-27T10:42:11.751Z,11.48
2023-02-27T10:44:50.595Z,11.63
2023-02-27T10:47:37.384Z,11.85
2023-02-27T10:50:24.397Z,13.88
2023-02-27T10:53:03.539Z,14.18
2023-02-27T10:55:45.164Z,12.98
2023-02-27T10:58:25.871Z,10.85
2023-02-27T11:01:02.223Z,12.27
2023-02-27T11:03:41.498Z,12.70
2023-02-27T11:06:33.364Z,12.05
2023-02-27T11:09:27.876Z,12.32
2023-02-27T11:12:27.737Z,14.43
2023-02-27T11:15:28.834Z,12.73
2023-02-27T11:18:33.857Z,14.35
2023-02-27T11:21:24.888Z,13.95
2023-02-27T11:24:11.536Z,13.85
2023-02-27T11:27:00.784Z,14.43
2023-02-27T11:30:11.124Z,13.10
2023-02-27T11:32:59.139Z,12.88
2023-02-27T11:35:40.717Z,14.10
2023-02-27T11:38:25.852Z,11.45
2023-02-27T11:41:03.325Z,11.63
2023-02-27T11:43:52.256Z,13.10
2023-02-27T11:46:47.090Z,14.45
2023-02-27T11:49:40.213Z,14.02
2023-02-27T11:55:10.115Z,12.95
2023-02-27T11:57:51.886Z,12.77
2023-02-27T12:00:38.725Z,14.88
2023-02-27T12:03:31.438Z,15.60
2023-02-27T12:06:15.401Z,15.02
2023-02-27T12:09:01.444Z,16.42
2023-02-27T12:11:42.826Z,16.23
2023-02-27T12:17:23.602Z,13.75
2023-02-27T12:20:29.899Z,14.10
2023-02-27T12:23:19.127Z,13.70
2023-02-27T12:26:04.455Z,21.48
2023-02-27T12:28:54.145Z,14.18
2023-02-27T12:31:45.375Z,12.85
2023-02-27T12:34:45.594Z,14.77
2023-02-27T12:37:31.600Z,14.55
2023-02-27T12:40:12.297Z,14.18
2023-02-27T12:46:40.977Z,12.95
2023-02-27T12:49:48.783Z,12.50
2023-02-27T12:52:52.504Z,11.82
2023-02-27T12:55:32.956Z,14.20
2023-02-27T12:59:00.948Z,12.50
2023-02-27T13:01:45.147Z,12.95
2023-02-27T13:04:27.724Z,12.50
2023-02-27T13:07:07.581Z,14.38
2023-02-27T13:10:03.082Z,12.00
2023-02-27T13:12:53.990Z,12.38
2023-02-27T13:15:37.544Z,12.07
2023-02-27T13:18:27.262Z,10.93
2023-02-27T13:21:11.402Z,9.98
2023-02-27T13:23:55.965Z,10.52
2023-02-27T13:26:41.507Z,10.13
2023-02-27T13:29:20.966Z,12.25
2023-02-27T13:32:04.172Z,11.07
2023-02-27T13:34:42.380Z,12.07
2023-02-27T13:37:14.058Z,10.57
2023-02-27T13:40:03.070Z,12.32
2023-02-27T13:43:02.607Z,11.15
2023-02-27T13:45:59.705Z,11.82
2023-02-27T13:48:55.637Z,12.65
2023-02-27T13:52:02.307Z,12.65
2023-02-27T13:54:44.478Z,12.63
2023-02-27T13:57:38.391Z,12.75
2023-02-27T14:00:32.833Z,12.85
2023-02-27T14:03:14.071Z,12.30
2023-02-27T14:05:49.612Z,13.02
2023-02-27T14:08:29.908Z,13.05
2023-02-27T14:11:10.154Z,13.45
2023-02-27T14:14:05.046Z,12.77
2023-02-27T14:17:12.770Z,12.00
2023-02-27T14:20:06.743Z,12.63
2023-02-27T14:23:20.682Z,12.57
2023-02-27T14:25:59.083Z,13.25
2023-02-27T14:28:38.129Z,13.27
2023-02-27T14:31:23.077Z,15.15
2023-02-27T14:34:11.655Z,15.23
2023-02-27T14:36:52.190Z,14.35
2023-02-27T14:39:37.615Z,15.05
2023-02-27T14:42:48.460Z,16.48
2023-02-27T14:45:28.072Z,14.27
2023-02-27T14:48:02.590Z,14.50
2023-02-27T14:50:41.806Z,14.45
2023-02-27T14:53:27.090Z,15.30
2023-02-27T14:56:05.394Z,13.80
2023-02-27T14:59:02.241Z,16.23
2023-02-27T15:01:43.103Z,15.18
2023-02-27T15:04:29.620Z,15.65
2023-02-27T15:07:07.596Z,13.73
2023-02-27T15:09:51.684Z,15.35
2023-02-27T15:12:25.628Z,17.40
2023-02-27T15:15:12.857Z,16.02
2023-02-27T15:17:51.682Z,16.52
2023-02-27T15:20:39.980Z,18.05
2023-02-27T15:23:35.971Z,15.65
2023-02-27T15:26:14.821Z,14.55
2023-02-27T15:28:53.893Z,13.02
2023-02-27T15:31:39.255Z,12.93
2023-02-27T15:34:20.466Z,13.18
2023-02-27T15:36:53.998Z,13.98
2023-02-27T15:39:33.956Z,13.70
2023-02-27T15:42:12.948Z,14.65
2023-02-27T15:44:50.057Z,16.50
2023-02-27T15:47:28.589Z,13.38
2023-02-27T15:50:12.708Z,14.20
2023-02-27T15:52:55.447Z,13.00
2023-02-27T15:55:39.100Z,13.52
2023-02-27T15:58:53.416Z,11.98
2023-02-27T16:01:31.945Z,13.90
2023-02-27T16:04:12.089Z,16.10
2023-02-27T16:06:54.560Z,16.25
2023-02-27T16:09:37.259Z,17.30
2023-02-27T16:12:34.619Z,15.43
2023-02-27T16:15:31.112Z,15.80
2023-02-27T16:18:10.559Z,14.32
2023-02-27T16:21:02.993Z,14.20
2023-02-27T16:23:39.739Z,16.05
2023-02-27T16:26:39.666Z,15.13
2023-02-27T16:29:26.339Z,17.02
2023-02-27T16:34:56.938Z,77.78
2023-02-27T16:37:35.802Z,76.63
2023-02-27T16:40:24.547Z,64.68
2023-02-27T16:43:12.109Z,52.60
2023-02-27T16:46:07.746Z,51.42
2023-02-27T16:48:42.220Z,50.17
2023-02-27T16:51:21.899Z,43.78
2023-02-27T16:53:59.058Z,34.08
2023-02-27T16:56:38.611Z,27.45
2023-02-27T16:59:25.873Z,27.17
2023-02-27T17:02:11.822Z,24.00
2023-02-27T17:04:49.267Z,22.70
2023-02-27T17:07:24.602Z,22.15
2023-02-27T17:10:04.063Z,22.88
2023-02-27T17:12:45.037Z,25.17
2023-02-27T17:15:19.313Z,26.60
2023-02-27T17:17:54.596Z,26.35
2023-02-27T17:20:30.832Z,30.05
2023-02-27T17:23:08.674Z,29.73
2023-02-27T17:25:43.379Z,29.50
2023-02-27T17:28:24.409Z,28.90
2023-02-27T17:33:40.488Z,30.08
2023-02-27T17:36:19.362Z,28.77
2023-02-27T17:38:57.515Z,29.90
2023-02-27T17:41:37.454Z,26.60
2023-02-27T17:44:15.295Z,26.25
2023-02-27T17:46:53.367Z,25.85
2023-02-27T17:49:34.275Z,27.67
2023-02-27T17:52:09.814Z,26.52
2023-02-27T17:54:56.972Z,28.63
2023-02-27T17:57:28.781Z,28.15
2023-02-27T18:00:04.101Z,30.83
2023-02-27T18:02:48.662Z,31.00
2023-02-27T18:05:39.777Z,28.80
2023-02-27T18:08:16.782Z,28.90
2023-02-27T18:10:54.635Z,27.90
2023-02-27T18:13:36.011Z,29.20
2023-02-27T18:16:15.783Z,27.83
2023-02-27T18:18:53.412Z,28.83
2023-02-27T18:21:35.975Z,27.08
2023-02-27T18:24:29.956Z,27.00
2023-02-27T18:27:03.764Z,28.75
2023-02-27T18:29:39.179Z,27.95
2023-02-27T18:32:25.559Z,27.80
2023-02-27T18:35:05.087Z,26.40
2023-02-27T18:40:32.632Z,27.65
2023-02-27T18:43:14.116Z,27.83
2023-02-27T18:45:53.014Z,26.88
2023-02-27T18:48:41.235Z,24.98
2023-02-27T18:51:26.787Z,24.83
2023-02-27T18:54:13.636Z,24.30
2023-02-27T18:56:54.931Z,24.85
2023-02-27T18:59:31.639Z,25.63
2023-02-27T19:02:02.924Z,25.70
2023-02-27T19:04:44.450Z,25.87
2023-02-27T19:07:17.083Z,24.38
2023-02-27T19:09:56.797Z,25.20
2023-02-27T19:12:30.570Z,22.98
2023-02-27T19:15:10.816Z,24.52
2023-02-27T19:17:50.725Z,23.90
2023-02-27T19:20:20.959Z,32.47
2023-02-27T19:22:51.093Z,28.60
2023-02-27T19:25:32.201Z,32.20
2023-02-27T19:28:10.435Z,34.35
2023-02-27T19:30:45.758Z,32.30
2023-02-27T19:33:17.034Z,23.55
2023-02-27T19:35:47.438Z,23.63
2023-02-27T19:38:28.820Z,21.17
2023-02-27T19:41:16.450Z,21.17
2023-02-27T19:43:57.461Z,20.10
2023-02-27T19:46:33.029Z,24.23
2023-02-27T19:49:12.288Z,23.20
2023-02-27T19:51:44.999Z,24.25
2023-02-27T19:54:19.664Z,26.40
2023-02-27T19:57:01.190Z,27.92
2023-02-27T19:59:43.818Z,26.27
2023-02-27T20:02:23.061Z,29.85
2023-02-27T20:04:56.377Z,33.42
2023-02-27T20:07:35.021Z,42.20
2023-02-27T20:10:09.120Z,45.85
2023-02-27T20:12:47.423Z,44.88
2023-02-27T20:15:24.354Z,45.13
2023-02-27T20:17:56.522Z,39.40
2023-02-27T20:20:32.766Z,34.00
2023-02-27T20:23:06.753Z,28.42
2023-02-27T20:25:39.409Z,31.35
2023-02-27T20:28:14.815Z,34.95
2023-02-27T20:30:45.046Z,34.25
2023-02-27T20:33:23.214Z,40.67
2023-02-27T20:35:57.276Z,41.22
2023-02-27T20:38:35.562Z,36.20
2023-02-27T20:41:29.968Z,34.13
2023-02-27T20:44:19.705Z,37.83
2023-02-27T20:46:56.867Z,42.17
2023-02-27T20:49:32.265Z,44.75
2023-02-27T20:52:13.961Z,44.58
2023-02-27T20:54:45.239Z,45.50
2023-02-27T20:57:24.356Z,42.88
2023-02-27T21:00:05.621Z,42.67
2023-02-27T21:02:41.364Z,44.17
2023-02-27T21:05:20.447Z,41.38
2023-02-27T21:07:56.696Z,40.65
2023-02-27T21:10:35.387Z,37.58
2023-02-27T21:13:11.309Z,39.63
2023-02-27T21:15:59.938Z,36.92
2023-02-27T21:18:39.686Z,36.47
2023-02-27T21:21:28.479Z,38.85
2023-02-27T21:24:09.261Z,38.70
2023-02-27T21:26:47.301Z,40.13
2023-02-27T21:29:27.198Z,38.20
2023-02-27T21:32:26.265Z,41.38
2023-02-27T21:35:08.616Z,41.45
2023-02-27T21:37:49.464Z,42.55
2023-02-27T21:40:25.229Z,44.90
2023-02-27T21:42:59.907Z,40.88
2023-02-27T21:45:38.786Z,43.50
2023-02-27T21:48:21.423Z,44.25
2023-02-27T21:51:14.032Z,37.88
2023-02-27T21:53:57.116Z,36.03
2023-02-27T21:56:39.286Z,32.17
2023-02-27T21:59:12.720Z,32.85
2023-02-27T22:01:53.600Z,34.70
2023-02-27T22:04:31.271Z,39.85
2023-02-27T22:07:12.375Z,41.10
2023-02-27T22:09:54.637Z,44.90
2023-02-27T22:12:28.844Z,43.88
2023-02-27T22:15:08.532Z,42.78
2023-02-27T22:17:51.731Z,37.90
2023-02-27T22:20:34.317Z,39.05
2023-02-27T22:23:17.478Z,37.13
2023-02-27T22:25:52.275Z,36.83
2023-02-27T22:28:28.063Z,36.78
2023-02-27T22:31:15.203Z,35.70
2023-02-27T22:33:50.248Z,34.38
2023-02-27T22:36:37.974Z,32.22
2023-02-27T22:39:14.265Z,32.08
2023-02-27T22:41:55.925Z,32.63
2023-02-27T22:44:33.672Z,29.13
2023-02-27T22:47:14.500Z,29.30
2023-02-27T22:49:57.942Z,28.83
2023-02-27T22:52:51.593Z,29.73
2023-02-27T22:55:27.395Z,28.23
2023-02-27T22:58:02.401Z,28.75
2023-02-27T23:00:48.504Z,29.98
2023-02-27T23:03:40.754Z,30.90
2023-02-27T23:06:19.134Z,30.90
2023-02-27T23:09:13.978Z,30.23
2023-02-27T23:11:46.085Z,25.67
2023-02-27T23:14:33.503Z,26.23
2023-02-27T23:17:07.515Z,25.25
2023-02-27T23:19:46.025Z,25.15
2023-02-27T23:22:23.401Z,25.45
2023-02-27T23:25:08.975Z,23.40
2023-02-27T23:27:47.749Z,23.52
2023-02-27T23:30:38.524Z,24.58
2023-02-27T23:33:16.715Z,26.20
2023-02-27T23:35:55.181Z,22.60
2023-02-27T23:38:35.220Z,24.58
2023-02-27T23:41:25.241Z,25.17
2023-02-27T23:44:03.166Z,25.65
2023-02-27T23:46:41.518Z,26.80
2023-02-27T23:49:18.610Z,26.25
2023-02-27T23:51:55.629Z,27.13
2023-02-27T23:57:20.918Z,26.92
2023-02-27T23:59:55.337Z,30.15
